sensor_id;sensor_type;location;lat;lon;timestamp;temperature;humidity
33831;DHT22;20137;48.834;8.732;2022-09-09T00:01:28;14.60;99.90
33831;DHT22;20137;48.834;8.732;2022-09-09T00:04:05;14.60;99.90
33831;DHT22;20137;48.834;8.732;2022-09-09T00:06:45;14.60;99.90
33831;DHT22;20137;48.834;8.732;2022-09-09T00:09:37;14.60;99.90
33831;DHT22;20137;48.834;8.732;2022-09-09T00:17:38;14.70;99.90
33831;DHT22;20137;48.834;8.732;2022-09-09T00:23:15;15.10;99.90
33831;DHT22;20137;48.834;8.732;2022-09-09T00:26:38;15.20;99.90
33831;DHT22;20137;48.834;8.732;2022-09-09T00:28:52;15.20;99.90
33831;DHT22;20137;48.834;8.732;2022-09-09T00:31:27;15.30;99.90
33831;DHT22;20137;48.834;8.732;2022-09-09T00:33:55;15.30;99.90
33831;DHT22;20137;48.834;8.732;2022-09-09T00:36:26;15.20;99.90
33831;DHT22;20137;48.834;8.732;2022-09-09T00:38:58;15.30;99.90
33831;DHT22;20137;48.834;8.732;2022-09-09T00:41:37;15.30;99.90
33831;DHT22;20137;48.834;8.732;2022-09-09T00:57:35;15.20;99.90
33831;DHT22;20137;48.834;8.732;2022-09-09T01:00:27;15.20;99.90
33831;DHT22;20137;48.834;8.732;2022-09-09T01:06:31;15.20;99.90
33831;DHT22;20137;48.834;8.732;2022-09-09T01:17:11;15.40;99.90
33831;DHT22;20137;48.834;8.732;2022-09-09T01:25:56;15.50;99.90
33831;DHT22;20137;48.834;8.732;2022-09-09T01:28:28;15.50;99.90
33831;DHT22;20137;48.834;8.732;2022-09-09T01:30:55;15.70;99.90
33831;DHT22;20137;48.834;8.732;2022-09-09T01:33:22;15.90;99.90
33831;DHT22;20137;48.834;8.732;2022-09-09T01:35:52;16.20;99.90
33831;DHT22;20137;48.834;8.732;2022-09-09T01:38:22;16.30;99.90
33831;DHT22;20137;48.834;8.732;2022-09-09T01:40:49;16.00;99.90
33831;DHT22;20137;48.834;8.732;2022-09-09T01:43:21;15.60;99.90
33831;DHT22;20137;48.834;8.732;2022-09-09T01:45:49;15.30;99.90
33831;DHT22;20137;48.834;8.732;2022-09-09T01:48:21;15.00;99.90
33831;DHT22;20137;48.834;8.732;2022-09-09T01:50:48;14.90;99.90
33831;DHT22;20137;48.834;8.732;2022-09-09T01:53:15;14.90;99.90
33831;DHT22;20137;48.834;8.732;2022-09-09T01:56:00;14.80;99.90
33831;DHT22;20137;48.834;8.732;2022-09-09T02:03:57;14.60;99.90
33831;DHT22;20137;48.834;8.732;2022-09-09T02:06:33;14.60;99.90
33831;DHT22;20137;48.834;8.732;2022-09-09T02:09:03;14.50;99.90
33831;DHT22;20137;48.834;8.732;2022-09-09T02:11:30;14.50;99.90
33831;DHT22;20137;48.834;8.732;2022-09-09T02:14:23;14.50;99.90
33831;DHT22;20137;48.834;8.732;2022-09-09T02:17:02;14.50;99.90
33831;DHT22;20137;48.834;8.732;2022-09-09T02:19:31;14.50;99.90
33831;DHT22;20137;48.834;8.732;2022-09-09T02:21:59;14.50;99.90
33831;DHT22;20137;48.834;8.732;2022-09-09T02:24:26;14.40;99.90
33831;DHT22;20137;48.834;8.732;2022-09-09T02:26:54;14.40;99.90
33831;DHT22;20137;48.834;8.732;2022-09-09T02:29:36;14.40;99.90
33831;DHT22;20137;48.834;8.732;2022-09-09T02:32:06;14.30;99.90
33831;DHT22;20137;48.834;8.732;2022-09-09T02:34:37;14.30;99.90
33831;DHT22;20137;48.834;8.732;2022-09-09T02:37:06;14.20;99.90
33831;DHT22;20137;48.834;8.732;2022-09-09T02:39:33;14.30;99.90
33831;DHT22;20137;48.834;8.732;2022-09-09T02:41:59;14.20;99.90
33831;DHT22;20137;48.834;8.732;2022-09-09T02:44:25;14.20;99.90
33831;DHT22;20137;48.834;8.732;2022-09-09T02:52:18;14.10;99.90
33831;DHT22;20137;48.834;8.732;2022-09-09T02:54:45;14.00;99.90
33831;DHT22;20137;48.834;8.732;2022-09-09T02:57:16;13.90;99.90
33831;DHT22;20137;48.834;8.732;2022-09-09T02:59:44;13.90;99.90
33831;DHT22;20137;48.834;8.732;2022-09-09T03:02:10;13.70;99.90
33831;DHT22;20137;48.834;8.732;2022-09-09T03:04:37;13.80;99.90
33831;DHT22;20137;48.834;8.732;2022-09-09T03:07:03;13.70;99.90
33831;DHT22;20137;48.834;8.732;2022-09-09T03:09:29;13.70;99.90
33831;DHT22;20137;48.834;8.732;2022-09-09T03:11:55;13.70;99.90
33831;DHT22;20137;48.834;8.732;2022-09-09T03:14:22;13.60;99.90
33831;DHT22;20137;48.834;8.732;2022-09-09T03:16:51;13.50;99.90
33831;DHT22;20137;48.834;8.732;2022-09-09T03:19:16;13.50;99.90
33831;DHT22;20137;48.834;8.732;2022-09-09T03:21:44;13.50;99.90
33831;DHT22;20137;48.834;8.732;2022-09-09T03:24:10;13.30;99.90
33831;DHT22;20137;48.834;8.732;2022-09-09T03:26:35;13.30;99.90
33831;DHT22;20137;48.834;8.732;2022-09-09T03:29:03;13.30;99.90
33831;DHT22;20137;48.834;8.732;2022-09-09T03:31:32;13.10;99.90
33831;DHT22;20137;48.834;8.732;2022-09-09T03:33:58;13.10;99.90
33831;DHT22;20137;48.834;8.732;2022-09-09T03:36:24;13.00;99.90
33831;DHT22;20137;48.834;8.732;2022-09-09T03:38:51;13.00;99.90
33831;DHT22;20137;48.834;8.732;2022-09-09T03:41:17;12.90;99.90
33831;DHT22;20137;48.834;8.732;2022-09-09T03:43:43;12.90;99.90
33831;DHT22;20137;48.834;8.732;2022-09-09T03:46:09;12.90;99.90
33831;DHT22;20137;48.834;8.732;2022-09-09T03:48:35;12.90;99.90
33831;DHT22;20137;48.834;8.732;2022-09-09T03:51:01;12.90;99.90
33831;DHT22;20137;48.834;8.732;2022-09-09T03:53:28;12.80;99.90
33831;DHT22;20137;48.834;8.732;2022-09-09T03:55:55;12.80;99.90
33831;DHT22;20137;48.834;8.732;2022-09-09T03:58:24;12.90;99.90
33831;DHT22;20137;48.834;8.732;2022-09-09T04:00:55;13.00;99.90
33831;DHT22;20137;48.834;8.732;2022-09-09T04:03:21;13.10;99.90
33831;DHT22;20137;48.834;8.732;2022-09-09T04:05:52;13.20;99.90
33831;DHT22;20137;48.834;8.732;2022-09-09T04:08:20;13.40;99.90
33831;DHT22;20137;48.834;8.732;2022-09-09T04:10:49;13.50;99.90
33831;DHT22;20137;48.834;8.732;2022-09-09T04:13:16;13.70;99.90
33831;DHT22;20137;48.834;8.732;2022-09-09T04:15:43;13.70;99.90
33831;DHT22;20137;48.834;8.732;2022-09-09T04:18:10;13.80;99.90
33831;DHT22;20137;48.834;8.732;2022-09-09T04:20:37;13.80;99.90
33831;DHT22;20137;48.834;8.732;2022-09-09T04:23:03;13.90;99.90
33831;DHT22;20137;48.834;8.732;2022-09-09T04:25:29;13.70;99.90
33831;DHT22;20137;48.834;8.732;2022-09-09T04:27:56;13.60;99.90
33831;DHT22;20137;48.834;8.732;2022-09-09T04:30:22;13.60;99.90
33831;DHT22;20137;48.834;8.732;2022-09-09T04:32:48;13.50;99.90
33831;DHT22;20137;48.834;8.732;2022-09-09T04:35:14;13.40;99.90
33831;DHT22;20137;48.834;8.732;2022-09-09T04:37:40;13.30;99.90
33831;DHT22;20137;48.834;8.732;2022-09-09T04:40:07;13.20;99.90
33831;DHT22;20137;48.834;8.732;2022-09-09T04:42:38;13.20;99.90
33831;DHT22;20137;48.834;8.732;2022-09-09T04:45:05;13.20;99.90
33831;DHT22;20137;48.834;8.732;2022-09-09T04:47:32;13.10;99.90
33831;DHT22;20137;48.834;8.732;2022-09-09T04:49:58;13.10;99.90
33831;DHT22;20137;48.834;8.732;2022-09-09T04:52:23;13.00;99.90
33831;DHT22;20137;48.834;8.732;2022-09-09T04:54:49;13.00;99.90
33831;DHT22;20137;48.834;8.732;2022-09-09T04:57:15;13.00;99.90
33831;DHT22;20137;48.834;8.732;2022-09-09T04:59:40;13.00;99.90
33831;DHT22;20137;48.834;8.732;2022-09-09T05:02:06;13.00;99.90
33831;DHT22;20137;48.834;8.732;2022-09-09T05:04:32;13.00;99.90
33831;DHT22;20137;48.834;8.732;2022-09-09T05:06:58;13.00;99.90
33831;DHT22;20137;48.834;8.732;2022-09-09T05:09:24;13.00;99.90
33831;DHT22;20137;48.834;8.732;2022-09-09T05:11:50;13.10;99.90
33831;DHT22;20137;48.834;8.732;2022-09-09T05:14:16;13.10;99.90
33831;DHT22;20137;48.834;8.732;2022-09-09T05:16:44;13.20;99.90
33831;DHT22;20137;48.834;8.732;2022-09-09T05:19:10;13.10;99.90
33831;DHT22;20137;48.834;8.732;2022-09-09T05:21:36;13.20;99.90
33831;DHT22;20137;48.834;8.732;2022-09-09T05:24:02;13.30;99.90
33831;DHT22;20137;48.834;8.732;2022-09-09T05:26:28;13.40;99.90
33831;DHT22;20137;48.834;8.732;2022-09-09T05:28:54;13.50;99.90
33831;DHT22;20137;48.834;8.732;2022-09-09T05:31:20;13.60;99.90
33831;DHT22;20137;48.834;8.732;2022-09-09T05:33:47;13.70;99.90
33831;DHT22;20137;48.834;8.732;2022-09-09T05:36:16;13.80;99.90
33831;DHT22;20137;48.834;8.732;2022-09-09T05:38:42;13.90;99.90
33831;DHT22;20137;48.834;8.732;2022-09-09T05:41:09;14.00;99.90
33831;DHT22;20137;48.834;8.732;2022-09-09T05:43:37;14.10;99.90
33831;DHT22;20137;48.834;8.732;2022-09-09T05:46:11;14.10;99.90
33831;DHT22;20137;48.834;8.732;2022-09-09T05:48:42;14.20;99.90
33831;DHT22;20137;48.834;8.732;2022-09-09T05:51:10;14.30;99.90
33831;DHT22;20137;48.834;8.732;2022-09-09T05:53:38;14.20;99.90
33831;DHT22;20137;48.834;8.732;2022-09-09T05:56:09;14.30;99.90
33831;DHT22;20137;48.834;8.732;2022-09-09T05:58:38;14.30;99.90
33831;DHT22;20137;48.834;8.732;2022-09-09T06:01:35;14.20;99.90
33831;DHT22;20137;48.834;8.732;2022-09-09T06:04:02;14.40;99.90
33831;DHT22;20137;48.834;8.732;2022-09-09T06:06:31;14.50;99.90
33831;DHT22;20137;48.834;8.732;2022-09-09T06:09:02;14.40;99.90
33831;DHT22;20137;48.834;8.732;2022-09-09T06:11:30;14.50;99.90
33831;DHT22;20137;48.834;8.732;2022-09-09T06:14:01;14.60;99.90
33831;DHT22;20137;48.834;8.732;2022-09-09T06:16:28;14.80;99.90
33831;DHT22;20137;48.834;8.732;2022-09-09T06:18:55;14.80;99.90
33831;DHT22;20137;48.834;8.732;2022-09-09T06:21:26;14.80;99.90
33831;DHT22;20137;48.834;8.732;2022-09-09T06:23:53;15.00;99.90
33831;DHT22;20137;48.834;8.732;2022-09-09T06:26:24;15.20;99.90
33831;DHT22;20137;48.834;8.732;2022-09-09T06:28:52;15.40;99.90
33831;DHT22;20137;48.834;8.732;2022-09-09T06:31:20;15.60;99.90
33831;DHT22;20137;48.834;8.732;2022-09-09T06:33:53;15.70;99.90
33831;DHT22;20137;48.834;8.732;2022-09-09T06:36:21;15.90;99.90
33831;DHT22;20137;48.834;8.732;2022-09-09T06:38:47;15.90;99.90
33831;DHT22;20137;48.834;8.732;2022-09-09T06:41:16;16.00;99.90
33831;DHT22;20137;48.834;8.732;2022-09-09T06:43:42;16.20;99.90
33831;DHT22;20137;48.834;8.732;2022-09-09T06:48:39;16.30;99.90
33831;DHT22;20137;48.834;8.732;2022-09-09T06:51:10;16.30;99.90
33831;DHT22;20137;48.834;8.732;2022-09-09T06:53:40;16.30;99.90
33831;DHT22;20137;48.834;8.732;2022-09-09T06:58:44;16.40;99.90
33831;DHT22;20137;48.834;8.732;2022-09-09T07:01:18;16.40;99.90
33831;DHT22;20137;48.834;8.732;2022-09-09T07:03:49;16.50;99.90
33831;DHT22;20137;48.834;8.732;2022-09-09T07:06:26;16.70;99.90
33831;DHT22;20137;48.834;8.732;2022-09-09T07:08:54;16.70;99.90
33831;DHT22;20137;48.834;8.732;2022-09-09T07:11:22;16.80;99.90
33831;DHT22;20137;48.834;8.732;2022-09-09T07:13:48;17.00;99.90
33831;DHT22;20137;48.834;8.732;2022-09-09T07:16:17;17.20;99.90
33831;DHT22;20137;48.834;8.732;2022-09-09T07:18:44;17.30;99.90
33831;DHT22;20137;48.834;8.732;2022-09-09T07:21:11;17.50;99.90
33831;DHT22;20137;48.834;8.732;2022-09-09T07:23:38;17.60;99.90
33831;DHT22;20137;48.834;8.732;2022-09-09T07:26:11;17.60;99.90
33831;DHT22;20137;48.834;8.732;2022-09-09T07:28:37;17.60;99.90
33831;DHT22;20137;48.834;8.732;2022-09-09T07:31:03;17.60;99.90
33831;DHT22;20137;48.834;8.732;2022-09-09T07:33:31;17.60;99.90
33831;DHT22;20137;48.834;8.732;2022-09-09T07:36:07;17.60;99.90
33831;DHT22;20137;48.834;8.732;2022-09-09T07:38:46;17.60;99.90
33831;DHT22;20137;48.834;8.732;2022-09-09T07:41:24;17.60;99.90
33831;DHT22;20137;48.834;8.732;2022-09-09T07:43:50;17.80;99.90
33831;DHT22;20137;48.834;8.732;2022-09-09T07:46:18;17.90;99.90
33831;DHT22;20137;48.834;8.732;2022-09-09T07:48:49;18.00;99.90
33831;DHT22;20137;48.834;8.732;2022-09-09T07:51:18;17.80;99.90
33831;DHT22;20137;48.834;8.732;2022-09-09T07:53:46;17.80;99.90
33831;DHT22;20137;48.834;8.732;2022-09-09T07:56:14;17.80;99.90
33831;DHT22;20137;48.834;8.732;2022-09-09T07:58:44;17.90;99.90
33831;DHT22;20137;48.834;8.732;2022-09-09T08:01:13;18.00;99.90
33831;DHT22;20137;48.834;8.732;2022-09-09T08:03:39;18.20;99.90
33831;DHT22;20137;48.834;8.732;2022-09-09T08:06:07;18.60;99.90
33831;DHT22;20137;48.834;8.732;2022-09-09T08:08:34;18.90;99.90
33831;DHT22;20137;48.834;8.732;2022-09-09T08:13:38;19.00;99.90
33831;DHT22;20137;48.834;8.732;2022-09-09T08:16:13;19.00;99.90
33831;DHT22;20137;48.834;8.732;2022-09-09T08:18:39;19.00;99.90
33831;DHT22;20137;48.834;8.732;2022-09-09T08:21:11;18.80;99.90
33831;DHT22;20137;48.834;8.732;2022-09-09T08:23:38;18.80;99.90
33831;DHT22;20137;48.834;8.732;2022-09-09T08:26:06;18.70;99.90
33831;DHT22;20137;48.834;8.732;2022-09-09T08:28:32;18.50;99.90
33831;DHT22;20137;48.834;8.732;2022-09-09T08:31:15;18.30;99.90
33831;DHT22;20137;48.834;8.732;2022-09-09T08:33:42;18.30;99.90
33831;DHT22;20137;48.834;8.732;2022-09-09T08:36:17;18.40;99.90
33831;DHT22;20137;48.834;8.732;2022-09-09T08:38:46;18.50;99.90
33831;DHT22;20137;48.834;8.732;2022-09-09T08:44:10;18.60;99.90
33831;DHT22;20137;48.834;8.732;2022-09-09T08:52:23;19.20;99.90
33831;DHT22;20137;48.834;8.732;2022-09-09T08:54:51;19.60;99.90
33831;DHT22;20137;48.834;8.732;2022-09-09T08:57:26;19.80;99.90
33831;DHT22;20137;48.834;8.732;2022-09-09T08:59:55;20.20;99.90
33831;DHT22;20137;48.834;8.732;2022-09-09T09:05:19;20.80;99.90
33831;DHT22;20137;48.834;8.732;2022-09-09T09:12:54;21.50;99.90
33831;DHT22;20137;48.834;8.732;2022-09-09T09:15:25;21.60;99.90
33831;DHT22;20137;48.834;8.732;2022-09-09T09:17:52;21.80;99.90
33831;DHT22;20137;48.834;8.732;2022-09-09T09:20:24;21.70;99.90
33831;DHT22;20137;48.834;8.732;2022-09-09T09:22:54;21.70;99.90
33831;DHT22;20137;48.834;8.732;2022-09-09T09:25:31;21.80;99.90
33831;DHT22;20137;48.834;8.732;2022-09-09T09:28:02;21.70;99.90
33831;DHT22;20137;48.834;8.732;2022-09-09T09:33:38;21.00;99.90
33831;DHT22;20137;48.834;8.732;2022-09-09T09:35:56;20.20;99.90
33831;DHT22;20137;48.834;8.732;2022-09-09T09:38:23;19.50;99.90
33831;DHT22;20137;48.834;8.732;2022-09-09T09:40:51;18.90;99.90
33831;DHT22;20137;48.834;8.732;2022-09-09T09:43:27;18.40;99.90
33831;DHT22;20137;48.834;8.732;2022-09-09T09:45:53;18.00;99.90
33831;DHT22;20137;48.834;8.732;2022-09-09T09:48:19;17.70;99.90
33831;DHT22;20137;48.834;8.732;2022-09-09T09:50:54;17.50;99.90
33831;DHT22;20137;48.834;8.732;2022-09-09T09:53:23;17.50;99.90
33831;DHT22;20137;48.834;8.732;2022-09-09T09:55:57;17.60;99.90
33831;DHT22;20137;48.834;8.732;2022-09-09T09:58:24;17.80;99.90
33831;DHT22;20137;48.834;8.732;2022-09-09T10:00:52;18.00;99.90
33831;DHT22;20137;48.834;8.732;2022-09-09T10:03:24;18.20;99.90
33831;DHT22;20137;48.834;8.732;2022-09-09T10:05:51;18.50;99.90
33831;DHT22;20137;48.834;8.732;2022-09-09T10:08:18;18.50;99.90
33831;DHT22;20137;48.834;8.732;2022-09-09T10:11:15;18.50;99.90
33831;DHT22;20137;48.834;8.732;2022-09-09T10:14:20;18.60;99.90
33831;DHT22;20137;48.834;8.732;2022-09-09T10:22:49;18.50;99.90
33831;DHT22;20137;48.834;8.732;2022-09-09T10:25:26;18.20;99.90
33831;DHT22;20137;48.834;8.732;2022-09-09T10:28:13;17.90;99.90
33831;DHT22;20137;48.834;8.732;2022-09-09T10:31:19;17.40;99.90
33831;DHT22;20137;48.834;8.732;2022-09-09T10:34:02;17.20;99.90
33831;DHT22;20137;48.834;8.732;2022-09-09T10:36:31;17.30;99.90
33831;DHT22;20137;48.834;8.732;2022-09-09T10:50:12;17.00;99.90
33831;DHT22;20137;48.834;8.732;2022-09-09T10:56:03;16.40;99.90
33831;DHT22;20137;48.834;8.732;2022-09-09T10:58:48;16.30;99.90
33831;DHT22;20137;48.834;8.732;2022-09-09T11:01:24;16.10;99.90
33831;DHT22;20137;48.834;8.732;2022-09-09T11:06:41;15.80;99.90
33831;DHT22;20137;48.834;8.732;2022-09-09T11:09:16;15.80;99.90
33831;DHT22;20137;48.834;8.732;2022-09-09T11:11:55;15.70;99.90
33831;DHT22;20137;48.834;8.732;2022-09-09T11:14:40;15.70;99.90
33831;DHT22;20137;48.834;8.732;2022-09-09T11:17:15;15.60;99.90
33831;DHT22;20137;48.834;8.732;2022-09-09T11:19:44;15.40;99.90
33831;DHT22;20137;48.834;8.732;2022-09-09T11:25:34;15.30;99.90
33831;DHT22;20137;48.834;8.732;2022-09-09T11:39:54;16.50;99.90
33831;DHT22;20137;48.834;8.732;2022-09-09T11:42:24;17.00;99.90
33831;DHT22;20137;48.834;8.732;2022-09-09T11:44:50;17.50;99.90
33831;DHT22;20137;48.834;8.732;2022-09-09T11:47:25;18.00;99.90
33831;DHT22;20137;48.834;8.732;2022-09-09T11:52:45;18.20;99.90
33831;DHT22;20137;48.834;8.732;2022-09-09T11:55:29;18.30;99.90
33831;DHT22;20137;48.834;8.732;2022-09-09T12:00:42;18.50;99.90
33831;DHT22;20137;48.834;8.732;2022-09-09T12:03:35;18.60;99.90
33831;DHT22;20137;48.834;8.732;2022-09-09T12:06:18;18.40;99.90
33831;DHT22;20137;48.834;8.732;2022-09-09T12:08:50;18.40;99.90
33831;DHT22;20137;48.834;8.732;2022-09-09T12:11:29;18.50;99.90
33831;DHT22;20137;48.834;8.732;2022-09-09T12:13:59;18.40;99.90
33831;DHT22;20137;48.834;8.732;2022-09-09T12:16:36;18.30;99.90
33831;DHT22;20137;48.834;8.732;2022-09-09T12:19:06;18.20;99.90
33831;DHT22;20137;48.834;8.732;2022-09-09T12:24:51;18.40;99.90
33831;DHT22;20137;48.834;8.732;2022-09-09T12:27:20;18.50;99.90
33831;DHT22;20137;48.834;8.732;2022-09-09T12:30:02;18.60;99.90
33831;DHT22;20137;48.834;8.732;2022-09-09T12:32:29;18.80;99.90
33831;DHT22;20137;48.834;8.732;2022-09-09T12:35:25;18.90;99.90
33831;DHT22;20137;48.834;8.732;2022-09-09T12:37:52;19.10;99.90
33831;DHT22;20137;48.834;8.732;2022-09-09T12:40:33;19.10;99.90
33831;DHT22;20137;48.834;8.732;2022-09-09T12:43:23;19.20;99.90
33831;DHT22;20137;48.834;8.732;2022-09-09T12:45:49;19.30;99.90
33831;DHT22;20137;48.834;8.732;2022-09-09T12:48:27;19.40;99.90
33831;DHT22;20137;48.834;8.732;2022-09-09T12:50:54;19.50;99.90
33831;DHT22;20137;48.834;8.732;2022-09-09T12:56:07;19.30;99.90
33831;DHT22;20137;48.834;8.732;2022-09-09T12:58:36;19.30;99.90
33831;DHT22;20137;48.834;8.732;2022-09-09T13:01:04;19.40;99.90
33831;DHT22;20137;48.834;8.732;2022-09-09T13:03:31;19.60;99.90
33831;DHT22;20137;48.834;8.732;2022-09-09T13:05:59;19.80;99.90
33831;DHT22;20137;48.834;8.732;2022-09-09T13:08:35;19.90;99.90
33831;DHT22;20137;48.834;8.732;2022-09-09T13:11:04;19.90;99.90
33831;DHT22;20137;48.834;8.732;2022-09-09T13:13:34;20.20;99.90
33831;DHT22;20137;48.834;8.732;2022-09-09T13:16:02;20.30;99.90
33831;DHT22;20137;48.834;8.732;2022-09-09T13:18:34;20.20;99.90
33831;DHT22;20137;48.834;8.732;2022-09-09T13:21:01;20.40;99.90
33831;DHT22;20137;48.834;8.732;2022-09-09T13:23:29;20.50;99.90
33831;DHT22;20137;48.834;8.732;2022-09-09T13:25:57;20.50;99.90
33831;DHT22;20137;48.834;8.732;2022-09-09T13:28:25;20.60;99.90
33831;DHT22;20137;48.834;8.732;2022-09-09T13:31:04;20.60;99.90
33831;DHT22;20137;48.834;8.732;2022-09-09T13:33:34;20.60;99.90
33831;DHT22;20137;48.834;8.732;2022-09-09T13:36:03;20.60;99.90
33831;DHT22;20137;48.834;8.732;2022-09-09T13:38:53;20.40;99.90
33831;DHT22;20137;48.834;8.732;2022-09-09T13:41:21;20.20;99.90
33831;DHT22;20137;48.834;8.732;2022-09-09T13:43:49;20.30;99.90
33831;DHT22;20137;48.834;8.732;2022-09-09T13:46:45;20.70;99.90
33831;DHT22;20137;48.834;8.732;2022-09-09T13:51:37;21.10;99.90
33831;DHT22;20137;48.834;8.732;2022-09-09T13:54:09;21.20;99.90
33831;DHT22;20137;48.834;8.732;2022-09-09T13:56:36;21.10;99.80
33831;DHT22;20137;48.834;8.732;2022-09-09T13:59:05;20.90;99.90
33831;DHT22;20137;48.834;8.732;2022-09-09T14:01:31;20.70;99.60
33831;DHT22;20137;48.834;8.732;2022-09-09T14:03:59;20.70;99.90
33831;DHT22;20137;48.834;8.732;2022-09-09T14:06:25;20.80;99.90
33831;DHT22;20137;48.834;8.732;2022-09-09T14:08:51;20.90;99.90
33831;DHT22;20137;48.834;8.732;2022-09-09T14:11:17;20.80;99.90
33831;DHT22;20137;48.834;8.732;2022-09-09T14:13:43;20.80;99.90
33831;DHT22;20137;48.834;8.732;2022-09-09T14:16:09;21.00;99.90
33831;DHT22;20137;48.834;8.732;2022-09-09T14:18:36;20.70;99.40
33831;DHT22;20137;48.834;8.732;2022-09-09T14:21:03;20.70;99.90
33831;DHT22;20137;48.834;8.732;2022-09-09T14:23:29;21.00;99.90
33831;DHT22;20137;48.834;8.732;2022-09-09T14:25:55;21.20;98.80
33831;DHT22;20137;48.834;8.732;2022-09-09T14:28:21;21.30;98.80
33831;DHT22;20137;48.834;8.732;2022-09-09T14:30:47;21.50;99.00
33831;DHT22;20137;48.834;8.732;2022-09-09T14:33:14;21.50;97.90
33831;DHT22;20137;48.834;8.732;2022-09-09T14:35:41;21.60;98.60
33831;DHT22;20137;48.834;8.732;2022-09-09T14:38:08;21.60;98.10
33831;DHT22;20137;48.834;8.732;2022-09-09T14:40:35;21.70;98.30
33831;DHT22;20137;48.834;8.732;2022-09-09T14:43:01;21.90;97.30
33831;DHT22;20137;48.834;8.732;2022-09-09T14:45:27;21.80;97.40
33831;DHT22;20137;48.834;8.732;2022-09-09T14:47:53;21.60;97.40
33831;DHT22;20137;48.834;8.732;2022-09-09T14:50:20;21.50;97.40
33831;DHT22;20137;48.834;8.732;2022-09-09T14:52:46;21.30;97.60
33831;DHT22;20137;48.834;8.732;2022-09-09T14:55:12;21.30;98.50
33831;DHT22;20137;48.834;8.732;2022-09-09T14:57:38;21.30;97.90
33831;DHT22;20137;48.834;8.732;2022-09-09T15:00:05;21.30;98.50
33831;DHT22;20137;48.834;8.732;2022-09-09T15:02:31;21.30;98.50
33831;DHT22;20137;48.834;8.732;2022-09-09T15:04:57;21.50;98.20
33831;DHT22;20137;48.834;8.732;2022-09-09T15:07:24;21.60;98.60
33831;DHT22;20137;48.834;8.732;2022-09-09T15:09:50;21.60;97.50
33831;DHT22;20137;48.834;8.732;2022-09-09T15:12:15;21.50;98.00
33831;DHT22;20137;48.834;8.732;2022-09-09T15:14:44;21.50;98.00
33831;DHT22;20137;48.834;8.732;2022-09-09T15:17:10;21.30;98.10
33831;DHT22;20137;48.834;8.732;2022-09-09T15:19:36;20.80;98.40
33831;DHT22;20137;48.834;8.732;2022-09-09T15:22:03;20.50;99.10
33831;DHT22;20137;48.834;8.732;2022-09-09T15:24:31;20.20;99.70
33831;DHT22;20137;48.834;8.732;2022-09-09T15:26:57;20.00;99.80
33831;DHT22;20137;48.834;8.732;2022-09-09T15:29:23;19.70;99.90
33831;DHT22;20137;48.834;8.732;2022-09-09T15:31:49;19.50;99.90
33831;DHT22;20137;48.834;8.732;2022-09-09T15:34:14;19.30;99.90
33831;DHT22;20137;48.834;8.732;2022-09-09T15:36:43;19.10;99.90
33831;DHT22;20137;48.834;8.732;2022-09-09T15:39:17;18.90;99.90
33831;DHT22;20137;48.834;8.732;2022-09-09T15:41:44;18.80;99.90
33831;DHT22;20137;48.834;8.732;2022-09-09T15:44:10;18.70;99.90
33831;DHT22;20137;48.834;8.732;2022-09-09T15:46:39;18.50;99.90
33831;DHT22;20137;48.834;8.732;2022-09-09T15:49:12;18.40;99.90
33831;DHT22;20137;48.834;8.732;2022-09-09T15:51:40;17.40;99.90
33831;DHT22;20137;48.834;8.732;2022-09-09T15:54:08;15.90;99.90
33831;DHT22;20137;48.834;8.732;2022-09-09T15:56:34;15.00;99.90
33831;DHT22;20137;48.834;8.732;2022-09-09T15:59:01;14.40;99.90
33831;DHT22;20137;48.834;8.732;2022-09-09T16:01:29;14.20;99.90
33831;DHT22;20137;48.834;8.732;2022-09-09T16:03:56;14.10;99.90
33831;DHT22;20137;48.834;8.732;2022-09-09T16:06:23;14.10;99.90
33831;DHT22;20137;48.834;8.732;2022-09-09T16:08:52;14.30;99.90
33831;DHT22;20137;48.834;8.732;2022-09-09T16:11:24;14.40;99.90
33831;DHT22;20137;48.834;8.732;2022-09-09T16:13:51;14.50;99.90
33831;DHT22;20137;48.834;8.732;2022-09-09T16:16:18;14.70;99.90
33831;DHT22;20137;48.834;8.732;2022-09-09T16:18:53;14.80;99.90
33831;DHT22;20137;48.834;8.732;2022-09-09T16:21:31;15.10;99.90
33831;DHT22;20137;48.834;8.732;2022-09-09T16:23:58;15.50;99.90
33831;DHT22;20137;48.834;8.732;2022-09-09T16:26:29;15.80;99.90
33831;DHT22;20137;48.834;8.732;2022-09-09T16:28:55;16.10;99.90
33831;DHT22;20137;48.834;8.732;2022-09-09T16:31:24;16.20;99.90
33831;DHT22;20137;48.834;8.732;2022-09-09T16:33:50;16.40;99.90
33831;DHT22;20137;48.834;8.732;2022-09-09T16:36:19;16.50;99.90
33831;DHT22;20137;48.834;8.732;2022-09-09T16:38:45;16.50;99.90
33831;DHT22;20137;48.834;8.732;2022-09-09T16:41:12;16.50;99.90
33831;DHT22;20137;48.834;8.732;2022-09-09T16:43:39;16.40;99.90
33831;DHT22;20137;48.834;8.732;2022-09-09T16:46:14;16.20;99.90
33831;DHT22;20137;48.834;8.732;2022-09-09T16:48:42;16.00;99.90
33831;DHT22;20137;48.834;8.732;2022-09-09T16:51:15;15.90;99.90
33831;DHT22;20137;48.834;8.732;2022-09-09T16:53:42;15.80;99.90
33831;DHT22;20137;48.834;8.732;2022-09-09T16:56:10;15.70;99.90
33831;DHT22;20137;48.834;8.732;2022-09-09T16:58:36;15.70;99.90
33831;DHT22;20137;48.834;8.732;2022-09-09T17:01:03;15.60;99.90
33831;DHT22;20137;48.834;8.732;2022-09-09T17:03:30;15.50;99.90
33831;DHT22;20137;48.834;8.732;2022-09-09T17:05:57;15.50;99.90
33831;DHT22;20137;48.834;8.732;2022-09-09T17:08:24;15.40;99.90
33831;DHT22;20137;48.834;8.732;2022-09-09T17:10:49;15.30;99.90
33831;DHT22;20137;48.834;8.732;2022-09-09T17:13:16;15.30;99.90
33831;DHT22;20137;48.834;8.732;2022-09-09T17:15:45;15.30;99.90
33831;DHT22;20137;48.834;8.732;2022-09-09T17:18:12;15.20;99.90
33831;DHT22;20137;48.834;8.732;2022-09-09T17:20:39;15.10;99.90
33831;DHT22;20137;48.834;8.732;2022-09-09T17:23:10;15.10;99.90
33831;DHT22;20137;48.834;8.732;2022-09-09T17:25:36;15.10;99.90
33831;DHT22;20137;48.834;8.732;2022-09-09T17:28:03;14.90;99.90
33831;DHT22;20137;48.834;8.732;2022-09-09T17:30:35;15.00;99.90
33831;DHT22;20137;48.834;8.732;2022-09-09T17:33:02;14.90;99.90
33831;DHT22;20137;48.834;8.732;2022-09-09T17:35:29;14.80;99.90
33831;DHT22;20137;48.834;8.732;2022-09-09T17:37:55;14.80;99.90
33831;DHT22;20137;48.834;8.732;2022-09-09T17:40:21;14.70;99.90
33831;DHT22;20137;48.834;8.732;2022-09-09T17:42:47;14.70;99.90
33831;DHT22;20137;48.834;8.732;2022-09-09T17:45:13;14.70;99.90
33831;DHT22;20137;48.834;8.732;2022-09-09T17:47:40;14.60;99.90
33831;DHT22;20137;48.834;8.732;2022-09-09T17:50:08;14.60;99.90
33831;DHT22;20137;48.834;8.732;2022-09-09T17:52:34;14.50;99.90
33831;DHT22;20137;48.834;8.732;2022-09-09T17:55:00;14.50;99.90
33831;DHT22;20137;48.834;8.732;2022-09-09T17:57:26;14.40;99.90